createdAt,value
2016-06-08T00:00:57.839Z,19.21
2016-06-08T00:01:57.843Z,19.07
2016-06-08T00:02:57.830Z,19.06
2016-06-08T00:03:57.988Z,19.19
2016-06-08T00:04:57.850Z,19.21
2016-06-08T00:05:57.791Z,19.21
2016-06-08T00:06:57.794Z,19.22
2016-06-08T00:07:57.780Z,19.21
2016-06-08T00:08:57.814Z,19.18
2016-06-08T00:09:57.755Z,19.22
2016-06-08T00:10:58.147Z,19.16
2016-06-08T00:11:57.947Z,19.22
2016-06-08T00:12:57.777Z,19.25
2016-06-08T00:13:57.702Z,19.26
2016-06-08T00:14:57.690Z,19.19
2016-06-08T00:15:57.677Z,19.3
2016-06-08T00:16:57.664Z,19.31
2016-06-08T00:17:57.651Z,19.25
2016-06-08T00:18:57.685Z,19.34
2016-06-08T00:19:57.656Z,19.26
2016-06-08T00:20:57.612Z,19.21
2016-06-08T00:21:57.615Z,19.37
2016-06-08T00:22:57.587Z,19.44
2016-06-08T00:23:57.589Z,19.43
2016-06-08T00:24:57.403Z,19.43
2016-06-08T00:25:57.548Z,19.48
2016-06-08T00:26:57.565Z,19.43
2016-06-08T00:27:57.537Z,19.38
2016-06-08T00:28:57.555Z,19.46
2016-06-08T00:29:57.495Z,19.3
2016-06-08T00:30:57.498Z,19.22
2016-06-08T00:31:57.486Z,19.3
2016-06-08T00:32:57.317Z,19.31
2016-06-08T00:33:57.475Z,19.22
2016-06-08T00:34:57.478Z,19.26
2016-06-08T00:35:57.433Z,19.22
2016-06-08T00:36:57.436Z,19.26
2016-06-08T00:37:57.267Z,19.3
2016-06-08T00:38:57.410Z,19.25
2016-06-08T00:39:57.461Z,19.21
2016-06-08T00:40:57.385Z,19.23
2016-06-08T00:41:57.513Z,19.16
2016-06-08T00:42:57.359Z,19.22
2016-06-08T00:43:57.346Z,19.22
2016-06-08T00:44:57.318Z,19.23
2016-06-08T00:45:57.320Z,19.23
2016-06-08T00:46:57.307Z,19.19
2016-06-08T00:47:57.310Z,19.11
2016-06-08T00:48:57.282Z,19.08
2016-06-08T00:49:57.284Z,19.07
2016-06-08T00:50:57.271Z,18.92
2016-06-08T00:51:57.257Z,18.97
2016-06-08T00:52:57.245Z,18.97
2016-06-08T00:53:57.232Z,19.06
2016-06-08T00:54:57.219Z,18.97
2016-06-08T00:55:57.426Z,18.99
2016-06-08T00:56:57.584Z,19.02
2016-06-08T00:57:57.024Z,19.11
2016-06-08T00:58:57.184Z,19.19
2016-06-08T00:59:57.170Z,19.25
2016-06-08T01:00:57.157Z,19.25
2016-06-08T01:01:57.144Z,19.19
2016-06-08T01:02:57.131Z,19.11
2016-06-08T01:03:57.212Z,19.02
2016-06-08T01:04:57.090Z,19.18
2016-06-08T01:05:57.217Z,19.14
2016-06-08T01:06:57.080Z,19.04
2016-06-08T01:07:57.113Z,18.92
2016-06-08T01:08:57.053Z,18.97
2016-06-08T01:09:56.900Z,18.88
2016-06-08T01:10:57.230Z,18.96
2016-06-08T01:11:58.141Z,19.04
2016-06-08T01:12:57.018Z,18.97
2016-06-08T01:13:57.036Z,18.95
2016-06-08T01:14:56.992Z,18.88
2016-06-08T01:15:57.026Z,18.97
2016-06-08T01:16:56.966Z,18.95
2016-06-08T01:17:56.796Z,18.87
2016-06-08T01:18:56.924Z,18.82
2016-06-08T01:19:56.990Z,18.92
2016-06-08T01:20:56.930Z,18.84
2016-06-08T01:21:56.901Z,18.85
2016-06-08T01:22:56.904Z,18.97
2016-06-08T01:23:56.876Z,18.96
2016-06-08T01:24:56.862Z,18.97
2016-06-08T01:25:56.849Z,18.92
2016-06-08T01:26:56.867Z,18.88
2016-06-08T01:27:56.840Z,18.88
2016-06-08T01:28:56.826Z,18.87
2016-06-08T01:29:56.860Z,18.92
2016-06-08T01:30:56.801Z,18.87
2016-06-08T01:31:56.819Z,18.82
2016-06-08T01:32:56.775Z,18.93
2016-06-08T01:33:56.761Z,18.9
2016-06-08T01:34:56.748Z,18.95
2016-06-08T01:35:56.736Z,18.77
2016-06-08T01:36:56.723Z,18.77
2016-06-08T01:37:56.710Z,18.81
2016-06-08T01:38:56.697Z,18.8
2016-06-08T01:39:56.683Z,18.7
2016-06-08T01:40:56.655Z,18.82
2016-06-08T01:41:56.658Z,18.85
2016-06-08T01:42:56.660Z,18.82
2016-06-08T01:43:56.633Z,18.8
2016-06-08T01:44:56.635Z,18.82
2016-06-08T01:45:56.638Z,18.8
2016-06-08T01:46:56.610Z,18.8
2016-06-08T01:47:56.596Z,18.74
2016-06-08T01:48:56.568Z,18.8
2016-06-08T01:49:56.570Z,18.75
2016-06-08T01:50:56.557Z,18.85
2016-06-08T01:51:56.544Z,18.7
2016-06-08T01:52:56.547Z,18.67
2016-06-08T01:53:56.518Z,18.67
2016-06-08T01:54:56.506Z,18.59
2016-06-08T01:55:56.508Z,18.6
2016-06-08T01:56:56.511Z,18.55
2016-06-08T01:57:56.467Z,18.59
2016-06-08T01:58:56.454Z,18.48
2016-06-08T01:59:56.457Z,18.6
2016-06-08T02:00:56.428Z,18.73
2016-06-08T02:01:56.431Z,18.66
2016-06-08T02:02:56.403Z,18.63
2016-06-08T02:03:56.389Z,18.66
2016-06-08T02:04:56.470Z,18.67
2016-06-08T02:05:56.363Z,18.45
2016-06-08T02:06:56.366Z,18.51
2016-06-08T02:07:56.353Z,18.51
2016-06-08T02:08:56.184Z,18.51
2016-06-08T02:09:56.327Z,18.55
2016-06-08T02:10:56.314Z,18.52
2016-06-08T02:11:56.972Z,18.59
2016-06-08T02:12:56.367Z,18.62
2016-06-08T02:13:56.291Z,18.66
2016-06-08T02:14:56.356Z,18.51
2016-06-08T02:15:56.266Z,18.63
2016-06-08T02:16:56.299Z,18.56
2016-06-08T02:17:56.224Z,18.48
2016-06-08T02:18:56.211Z,18.51
2016-06-08T02:19:56.198Z,18.48
2016-06-08T02:20:56.185Z,18.51
2016-06-08T02:21:56.218Z,18.52
2016-06-08T02:22:56.018Z,18.47
2016-06-08T02:23:56.162Z,18.63
2016-06-08T02:24:56.196Z,18.58
2016-06-08T02:25:56.120Z,18.52
2016-06-08T02:26:56.560Z,18.55
2016-06-08T02:27:56.734Z,18.59
2016-06-08T02:28:56.112Z,18.45
2016-06-08T02:29:56.084Z,18.51
2016-06-08T02:30:55.914Z,18.45
2016-06-08T02:31:56.043Z,18.41
2016-06-08T02:32:56.045Z,18.38
2016-06-08T02:33:56.048Z,18.42
2016-06-08T02:34:56.035Z,18.41
2016-06-08T02:35:56.006Z,18.33
2016-06-08T02:36:56.009Z,18.44
2016-06-08T02:37:56.012Z,18.4
2016-06-08T02:38:56.030Z,18.41
2016-06-08T02:39:55.970Z,18.37
2016-06-08T02:40:55.989Z,18.3
2016-06-08T02:41:56.460Z,18.32
2016-06-08T02:42:56.603Z,18.37
2016-06-08T02:43:55.902Z,18.32
2016-06-08T02:44:55.921Z,18.25
2016-06-08T02:45:55.878Z,18.27
2016-06-08T02:46:55.863Z,18.1
2016-06-08T02:47:55.883Z,18.22
2016-06-08T02:48:55.854Z,18.14
2016-06-08T02:49:55.841Z,18.22
2016-06-08T02:50:55.828Z,18.29
2016-06-08T02:51:55.659Z,18.15
2016-06-08T02:52:55.802Z,18.22
2016-06-08T02:53:55.790Z,18.27
2016-06-08T02:54:55.776Z,18.18
2016-06-08T02:55:55.779Z,18.27
2016-06-08T02:56:55.766Z,18.26
2016-06-08T02:57:55.753Z,17.98
2016-06-08T02:58:55.724Z,18.07
2016-06-08T02:59:55.711Z,18.12
2016-06-08T03:00:55.714Z,18.04
2016-06-08T03:01:55.702Z,18.04
2016-06-08T03:02:55.672Z,17.92
2016-06-08T03:03:55.660Z,17.95
2016-06-08T03:04:55.647Z,18.04
2016-06-08T03:05:55.634Z,17.85
2016-06-08T03:06:55.637Z,17.85
2016-06-08T03:07:55.623Z,18.05
2016-06-08T03:08:55.455Z,17.96
2016-06-08T03:09:55.614Z,18.1
2016-06-08T03:10:55.585Z,18.1
2016-06-08T03:11:55.994Z,18.1
2016-06-08T03:12:55.809Z,17.98
2016-06-08T03:13:55.561Z,18.08
2016-06-08T03:14:55.533Z,18.05
2016-06-08T03:15:55.551Z,18.01
2016-06-08T03:16:55.507Z,18.12
2016-06-08T03:17:55.495Z,18.01
2016-06-08T03:18:55.466Z,18.01
2016-06-08T03:19:55.469Z,17.95
2016-06-08T03:20:55.455Z,18.02
2016-06-08T03:21:55.552Z,18.1
2016-06-08T03:22:55.429Z,18.07
2016-06-08T03:23:55.416Z,18.05
2016-06-08T03:24:55.404Z,18.04
2016-06-08T03:25:55.407Z,17.98
2016-06-08T03:26:55.097Z,17.93
2016-06-08T03:27:55.396Z,18.04
2016-06-08T03:28:55.368Z,18.04
2016-06-08T03:29:55.432Z,17.95
2016-06-08T03:30:55.342Z,17.77
2016-06-08T03:31:55.156Z,17.9
2016-06-08T03:32:55.300Z,17.9
2016-06-08T03:33:55.304Z,17.93
2016-06-08T03:34:55.290Z,18.05
2016-06-08T03:35:55.371Z,17.95
2016-06-08T03:36:55.264Z,18
2016-06-08T03:37:55.236Z,17.89
2016-06-08T03:38:55.239Z,17.82
2016-06-08T03:39:55.209Z,17.95
2016-06-08T03:40:55.197Z,17.96
2016-06-08T03:41:55.184Z,17.96
2016-06-08T03:42:55.187Z,17.89
2016-06-08T03:43:55.174Z,17.83
2016-06-08T03:44:55.130Z,17.64
2016-06-08T03:45:55.133Z,17.72
2016-06-08T03:46:55.135Z,17.75
2016-06-08T03:47:55.105Z,17.86
2016-06-08T03:48:55.109Z,17.83
2016-06-08T03:49:55.096Z,17.83
2016-06-08T03:50:55.083Z,17.86
2016-06-08T03:51:55.070Z,17.8
2016-06-08T03:52:55.057Z,17.92
2016-06-08T03:53:55.029Z,17.77
2016-06-08T03:54:55.016Z,17.98
2016-06-08T03:55:55.018Z,17.77
2016-06-08T03:56:55.943Z,17.85
2016-06-08T03:57:55.007Z,17.86
2016-06-08T03:58:54.965Z,17.95
2016-06-08T03:59:54.968Z,17.95
2016-06-08T04:00:54.782Z,17.96
2016-06-08T04:01:54.815Z,17.93
2016-06-08T04:02:54.943Z,17.95
2016-06-08T04:03:54.915Z,18.04
2016-06-08T04:04:54.901Z,18
2016-06-08T04:05:54.889Z,17.86
2016-06-08T04:06:54.876Z,17.86
2016-06-08T04:07:54.864Z,17.85
2016-06-08T04:08:54.850Z,17.98
2016-06-08T04:09:54.822Z,18
2016-06-08T04:10:54.684Z,18.07
2016-06-08T04:11:54.795Z,18.01
2016-06-08T04:12:55.377Z,17.98
2016-06-08T04:13:54.800Z,17.8
2016-06-08T04:14:54.773Z,17.83
2016-06-08T04:15:54.761Z,17.89
2016-06-08T04:16:54.731Z,17.9
2016-06-08T04:17:54.733Z,18.01
2016-06-08T04:18:54.721Z,17.82
2016-06-08T04:19:54.708Z,17.8
2016-06-08T04:20:54.694Z,17.83
2016-06-08T04:21:54.682Z,17.72
2016-06-08T04:22:54.669Z,17.86
2016-06-08T04:23:54.500Z,17.98
2016-06-08T04:24:54.643Z,17.86
2016-06-08T04:25:54.615Z,18
2016-06-08T04:26:54.618Z,17.95
2016-06-08T04:27:54.620Z,18.05
2016-06-08T04:28:54.591Z,18.15
2016-06-08T04:29:54.578Z,18.11
2016-06-08T04:30:54.629Z,18.11
2016-06-08T04:31:54.397Z,18.23
2016-06-08T04:32:54.540Z,18.22
2016-06-08T04:33:54.527Z,18.1
2016-06-08T04:34:54.545Z,18.14
2016-06-08T04:35:54.501Z,18.14
2016-06-08T04:36:54.487Z,18.18
2016-06-08T04:37:54.475Z,18.08
2016-06-08T04:38:54.509Z,18.1
2016-06-08T04:39:54.450Z,18.15
2016-06-08T04:40:54.452Z,18.18
2016-06-08T04:41:54.423Z,18.18
2016-06-08T04:42:54.833Z,18.18
2016-06-08T04:43:54.397Z,18.14
2016-06-08T04:44:54.400Z,18.01
2016-06-08T04:45:54.371Z,18.15
2016-06-08T04:46:54.375Z,18.18
2016-06-08T04:47:54.362Z,18.14
2016-06-08T04:48:54.333Z,18.26
2016-06-08T04:49:54.319Z,18.25
2016-06-08T04:50:54.307Z,18.26
2016-06-08T04:51:54.310Z,18.29
2016-06-08T04:52:54.280Z,18.14
2016-06-08T04:53:54.284Z,18.1
2016-06-08T04:54:54.271Z,17.98
2016-06-08T04:55:54.258Z,18.08
2016-06-08T04:56:54.245Z,18.19
2016-06-08T04:57:54.076Z,18.1
2016-06-08T04:58:54.266Z,18.18
2016-06-08T04:59:54.206Z,18.3
2016-06-08T05:00:54.209Z,18.42
2016-06-08T05:01:54.195Z,18.44
2016-06-08T05:02:54.214Z,18.44
2016-06-08T05:03:54.155Z,18.44
2016-06-08T05:04:54.157Z,18.41
2016-06-08T05:05:54.113Z,18.26
2016-06-08T05:06:54.118Z,18.38
2016-06-08T05:07:54.131Z,18.4
2016-06-08T05:08:54.130Z,18.52
2016-06-08T05:09:54.126Z,18.58
2016-06-08T05:10:54.109Z,18.47
2016-06-08T05:11:54.103Z,18.47
2016-06-08T05:12:54.110Z,18.47
2016-06-08T05:13:54.101Z,18.38
2016-06-08T05:14:53.983Z,18.42
2016-06-08T05:15:54.082Z,18.4
2016-06-08T05:16:54.057Z,18.41
2016-06-08T05:17:54.061Z,18.42
2016-06-08T05:18:53.893Z,18.35
2016-06-08T05:19:54.038Z,18.4
2016-06-08T05:20:54.011Z,18.38
2016-06-08T05:21:54.015Z,18.47
2016-06-08T05:22:54.001Z,18.44
2016-06-08T05:23:53.974Z,18.55
2016-06-08T05:24:53.820Z,18.55
2016-06-08T05:25:53.948Z,18.62
2016-06-08T05:26:53.951Z,18.69
2016-06-08T05:27:54.158Z,18.8
2016-06-08T05:28:53.926Z,18.69
2016-06-08T05:29:53.914Z,18.66
2016-06-08T05:30:53.917Z,18.75
2016-06-08T05:31:53.904Z,18.87
2016-06-08T05:32:53.954Z,18.66
2016-06-08T05:33:53.754Z,18.7
2016-06-08T05:34:53.849Z,18.52
2016-06-08T05:35:53.899Z,18.62
2016-06-08T05:36:53.823Z,18.75
2016-06-08T05:37:53.827Z,18.65
2016-06-08T05:38:53.814Z,18.58
2016-06-08T05:39:53.800Z,18.77
2016-06-08T05:40:53.788Z,18.8
2016-06-08T05:41:53.697Z,18.81
2016-06-08T05:42:53.621Z,18.92
2016-06-08T05:43:53.748Z,18.99
2016-06-08T05:44:53.751Z,18.88
2016-06-08T05:45:53.739Z,18.99
2016-06-08T05:46:53.711Z,19.07
2016-06-08T05:47:53.713Z,19.02
2016-06-08T05:48:53.700Z,19.06
2016-06-08T05:49:53.672Z,19.16
2016-06-08T05:50:53.674Z,19.22
2016-06-08T05:51:53.661Z,19.25
2016-06-08T05:52:53.648Z,19.22
2016-06-08T05:53:53.682Z,19.26
2016-06-08T05:54:53.607Z,19.37
2016-06-08T05:55:53.702Z,19.25
2016-06-08T05:56:53.613Z,19.33
2016-06-08T05:57:54.365Z,19.46
2016-06-08T05:58:54.149Z,19.4
2016-06-08T05:59:53.573Z,19.41
2016-06-08T06:00:53.560Z,19.4
2016-06-08T06:01:53.563Z,19.48
2016-06-08T06:02:53.534Z,19.55
2016-06-08T06:03:53.521Z,19.58
2016-06-08T06:04:53.508Z,19.61
2016-06-08T06:05:53.496Z,19.67
2016-06-08T06:06:53.468Z,19.67
2016-06-08T06:07:53.501Z,19.55
2016-06-08T06:08:53.456Z,19.56
2016-06-08T06:09:53.459Z,19.76
2016-06-08T06:10:53.431Z,19.74
2016-06-08T06:11:53.464Z,19.71
2016-06-08T06:12:53.701Z,19.69
2016-06-08T06:13:53.783Z,19.61
2016-06-08T06:14:53.395Z,19.69
2016-06-08T06:15:53.398Z,19.81
2016-06-08T06:16:53.384Z,19.7
2016-06-08T06:17:53.372Z,19.85
2016-06-08T06:18:53.358Z,19.71
2016-06-08T06:19:53.330Z,19.78
2016-06-08T06:20:53.333Z,19.53
2016-06-08T06:21:53.319Z,19.51
2016-06-08T06:22:53.307Z,19.73
2016-06-08T06:23:53.310Z,19.61
2016-06-08T06:24:53.281Z,19.73
2016-06-08T06:25:53.283Z,19.69
2016-06-08T06:26:53.271Z,19.77
2016-06-08T06:27:53.477Z,19.58
2016-06-08T06:28:53.244Z,19.52
2016-06-08T06:29:53.232Z,19.55
2016-06-08T06:30:53.218Z,19.67
2016-06-08T06:31:53.049Z,19.69
2016-06-08T06:32:53.210Z,19.59
2016-06-08T06:33:53.180Z,19.71
2016-06-08T06:34:53.182Z,19.53
2016-06-08T06:35:53.155Z,19.49
2016-06-08T06:36:53.157Z,19.53
2016-06-08T06:37:53.144Z,19.52
2016-06-08T06:38:53.162Z,19.55
2016-06-08T06:39:53.118Z,19.49
2016-06-08T06:40:53.121Z,19.58
2016-06-08T06:41:53.108Z,19.69
2016-06-08T06:42:52.954Z,19.49
2016-06-08T06:43:53.535Z,19.74
2016-06-08T06:44:53.117Z,19.77
2016-06-08T06:45:53.056Z,19.76
2016-06-08T06:46:53.043Z,19.81
2016-06-08T06:47:52.890Z,19.88
2016-06-08T06:48:53.064Z,19.81
2016-06-08T06:49:53.005Z,19.93
2016-06-08T06:50:52.991Z,20.01
2016-06-08T06:51:52.978Z,20.06
2016-06-08T06:52:52.997Z,20.23
2016-06-08T06:53:52.953Z,20.18
2016-06-08T06:54:52.956Z,20.31
2016-06-08T06:55:52.942Z,20.36
2016-06-08T06:56:52.945Z,20.52
2016-06-08T06:57:53.104Z,20.41
2016-06-08T06:58:53.810Z,20.38
2016-06-08T06:59:52.922Z,20.58
2016-06-08T07:00:52.924Z,20.69
2016-06-08T07:01:52.896Z,20.73
2016-06-08T07:02:52.883Z,20.73
2016-06-08T07:03:52.699Z,20.79
2016-06-08T07:04:52.842Z,20.81
2016-06-08T07:05:52.843Z,20.89
2016-06-08T07:06:52.832Z,20.85
2016-06-08T07:07:52.835Z,20.7
2016-06-08T07:08:52.821Z,20.85
2016-06-08T07:09:52.637Z,21.03
2016-06-08T07:10:52.779Z,21.03
2016-06-08T07:11:52.782Z,21.03
2016-06-08T07:12:52.801Z,21.06
2016-06-08T07:13:53.319Z,21.28
2016-06-08T07:14:52.759Z,21.28
2016-06-08T07:15:52.589Z,21.24
2016-06-08T07:16:52.717Z,21.17
2016-06-08T07:17:52.721Z,21.22
2016-06-08T07:18:52.708Z,21.1
2016-06-08T07:19:52.699Z,21.06
2016-06-08T07:20:52.695Z,21.09
2016-06-08T07:21:52.694Z,21.21
2016-06-08T07:22:52.494Z,21.13
2016-06-08T07:23:52.644Z,21.06
2016-06-08T07:24:52.638Z,21.15
2016-06-08T07:25:52.656Z,21.21
2016-06-08T07:26:52.628Z,21.18
2016-06-08T07:27:53.568Z,21.17
2016-06-08T07:28:53.181Z,21
2016-06-08T07:29:52.589Z,21.11
2016-06-08T07:30:52.592Z,21.25
2016-06-08T07:31:52.578Z,21.26
2016-06-08T07:32:52.566Z,21.36
2016-06-08T07:33:52.569Z,21.25
2016-06-08T07:34:52.531Z,21.24
2016-06-08T07:35:52.533Z,21.44
2016-06-08T07:36:52.520Z,21.41
2016-06-08T07:37:52.570Z,21.41
2016-06-08T07:38:52.495Z,21.29
2016-06-08T07:39:52.528Z,21.36
2016-06-08T07:40:52.489Z,21.41
2016-06-08T07:41:52.492Z,21.43
2016-06-08T07:42:53.322Z,21.43
2016-06-08T07:43:52.310Z,21.5
2016-06-08T07:44:52.453Z,21.59
2016-06-08T07:45:52.315Z,21.66
2016-06-08T07:46:52.427Z,21.66
2016-06-08T07:47:52.429Z,21.81
2016-06-08T07:48:52.260Z,21.8
2016-06-08T07:49:52.404Z,21.83
2016-06-08T07:50:52.402Z,21.86
2016-06-08T07:51:52.373Z,21.9
2016-06-08T07:52:52.376Z,22.11
2016-06-08T07:53:52.269Z,22.18
2016-06-08T07:54:52.365Z,22.1
2016-06-08T07:55:52.181Z,22.1
2016-06-08T07:56:52.357Z,22.33
2016-06-08T07:57:52.328Z,22.3
2016-06-08T07:58:52.175Z,22.11
2016-06-08T07:59:52.318Z,22.18
2016-06-08T08:00:52.289Z,22.32
2016-06-08T08:01:52.292Z,22.47
2016-06-08T08:02:52.280Z,22.54
2016-06-08T08:03:52.298Z,22.27
2016-06-08T08:04:52.269Z,22.48
2016-06-08T08:05:52.272Z,22.54
2016-06-08T08:06:52.291Z,22.51
2016-06-08T08:07:52.247Z,22.54
2016-06-08T08:08:52.218Z,22.54
2016-06-08T08:09:52.220Z,22.61
2016-06-08T08:10:52.208Z,22.69
2016-06-08T08:11:52.228Z,22.82
2016-06-08T08:12:52.185Z,22.98
2016-06-08T08:13:52.078Z,23.09
2016-06-08T08:14:52.166Z,23.29
2016-06-08T08:15:52.185Z,23.06
2016-06-08T08:16:52.171Z,22.99
2016-06-08T08:17:52.158Z,23.14
2016-06-08T08:18:52.161Z,23.12
2016-06-08T08:19:52.164Z,23.17
2016-06-08T08:20:52.151Z,23.45
2016-06-08T08:21:52.107Z,23.6
2016-06-08T08:22:52.109Z,23.84
2016-06-08T08:23:52.097Z,23.84
2016-06-08T08:24:52.100Z,23.8
2016-06-08T08:25:51.929Z,23.59
2016-06-08T08:26:52.090Z,23.42
2016-06-08T08:27:51.904Z,23.45
2016-06-08T08:28:51.938Z,23.57
2016-06-08T08:29:52.051Z,23.52
2016-06-08T08:30:52.100Z,23.57
2016-06-08T08:31:52.025Z,23.62
2016-06-08T08:32:52.042Z,23.75
2016-06-08T08:33:52.030Z,23.81
2016-06-08T08:34:52.064Z,23.96
2016-06-08T08:35:52.003Z,23.95
2016-06-08T08:36:52.053Z,23.87
2016-06-08T08:37:52.009Z,23.96
2016-06-08T08:38:52.106Z,24
2016-06-08T08:39:51.843Z,24.06
2016-06-08T08:40:51.830Z,24.21
2016-06-08T08:41:51.942Z,24.32
2016-06-08T08:42:51.961Z,24.58
2016-06-08T08:43:52.511Z,24.54
2016-06-08T08:44:51.950Z,24.8
2016-06-08T08:45:51.938Z,24.87
2016-06-08T08:46:51.908Z,24.84
2016-06-08T08:47:51.771Z,25.21
2016-06-08T08:48:51.882Z,25.3
2016-06-08T08:49:51.885Z,25.39
2016-06-08T08:50:51.888Z,25.52
2016-06-08T08:51:51.874Z,25.07
2016-06-08T08:52:51.909Z,25.02
2016-06-08T08:53:51.865Z,25.36
2016-06-08T08:54:51.851Z,25.34
2016-06-08T08:55:51.854Z,25.45
2016-06-08T08:56:51.826Z,25.26
2016-06-08T08:57:51.829Z,25.02
2016-06-08T08:58:51.988Z,25.11
2016-06-08T08:59:51.835Z,24.87
2016-06-08T09:00:51.664Z,24.49
2016-06-08T09:01:51.699Z,24.29
2016-06-08T09:02:51.843Z,24.54
2016-06-08T09:03:51.829Z,24.46
2016-06-08T09:04:51.785Z,24.54
2016-06-08T09:05:51.803Z,24.51
2016-06-08T09:06:51.759Z,24.52
2016-06-08T09:07:51.762Z,24.78
2016-06-08T09:08:51.780Z,24.74
2016-06-08T09:09:51.611Z,24.95
2016-06-08T09:10:51.755Z,25.03
2016-06-08T09:11:51.428Z,25.12
2016-06-08T09:12:51.744Z,24.78
2016-06-08T09:13:52.044Z,24.61
2016-06-08T09:14:51.719Z,24.58
2016-06-08T09:15:51.596Z,24.85
2016-06-08T09:16:51.692Z,25.08
2016-06-08T09:17:51.711Z,25.29
2016-06-08T09:18:51.697Z,24.59
2016-06-08T09:19:51.685Z,25.02
2016-06-08T09:20:51.672Z,25.52
2016-06-08T09:21:51.675Z,25.77
2016-06-08T09:22:51.677Z,26.29
2016-06-08T09:23:51.696Z,26.26
2016-06-08T09:24:51.667Z,26.3
2016-06-08T09:25:51.654Z,26.38
2016-06-08T09:26:51.641Z,26.33
2016-06-08T09:27:51.644Z,26.45
2016-06-08T09:28:51.662Z,26.75
2016-06-08T09:29:51.633Z,26.71
2016-06-08T09:30:51.480Z,26.69
2016-06-08T09:31:51.623Z,26.57
2016-06-08T09:32:51.626Z,26.84
2016-06-08T09:33:51.628Z,26.85
2016-06-08T09:34:51.600Z,26.51
2016-06-08T09:35:51.603Z,26.88
2016-06-08T09:36:51.605Z,27.31
2016-06-08T09:37:51.608Z,27.76
2016-06-08T09:38:51.861Z,27.74
2016-06-08T09:39:51.583Z,26.78
2016-06-08T09:40:51.617Z,26.6
2016-06-08T09:41:51.556Z,26.88
2016-06-08T09:42:51.575Z,26.81
2016-06-08T09:43:51.578Z,27.06
2016-06-08T09:44:52.456Z,27.37
2016-06-08T09:45:51.552Z,27.21
2016-06-08T09:46:51.445Z,27.18
2016-06-08T09:47:51.557Z,27.4
2016-06-08T09:48:51.591Z,26.79
2016-06-08T09:49:51.563Z,27.01
2016-06-08T09:50:51.549Z,26.97
2016-06-08T09:51:51.552Z,26.7
2016-06-08T09:52:51.538Z,26.56
2016-06-08T09:53:51.542Z,26.41
2016-06-08T09:54:51.529Z,26.39
2016-06-08T09:55:51.547Z,26.49
2016-06-08T09:56:51.534Z,26.59
2016-06-08T09:57:51.521Z,26.76
2016-06-08T09:58:51.524Z,26.49
2016-06-08T09:59:52.042Z,26.6
2016-06-08T10:00:51.482Z,26.56
2016-06-08T10:01:51.501Z,26.45
2016-06-08T10:02:51.488Z,26.59
2016-06-08T10:03:51.475Z,26.56
2016-06-08T10:04:51.493Z,26.6
2016-06-08T10:05:51.481Z,26.67
2016-06-08T10:06:51.452Z,27.12
2016-06-08T10:07:51.471Z,27.36
2016-06-08T10:08:51.456Z,27.72
2016-06-08T10:09:51.460Z,27.87
2016-06-08T10:10:51.306Z,27.59
2016-06-08T10:11:51.497Z,27.16
2016-06-08T10:12:51.453Z,27.23
2016-06-08T10:13:51.455Z,27.43
2016-06-08T10:14:51.130Z,27.81
2016-06-08T10:15:51.492Z,28.09
2016-06-08T10:16:51.433Z,28.19
2016-06-08T10:17:51.419Z,28.31
2016-06-08T10:18:51.421Z,28.5
2016-06-08T10:19:51.408Z,28.53
2016-06-08T10:20:51.286Z,28.68
2016-06-08T10:21:51.414Z,28.62
2016-06-08T10:22:51.416Z,28.62
2016-06-08T10:23:51.404Z,28.76
2016-06-08T10:24:51.562Z,28.79
2016-06-08T10:25:51.393Z,28.56
2016-06-08T10:26:51.380Z,28.47
2016-06-08T10:27:51.383Z,28.6
2016-06-08T10:28:52.090Z,28.64
2016-06-08T10:29:51.404Z,28.53
2016-06-08T10:30:51.454Z,28.01
2016-06-08T10:31:51.378Z,27.91
2016-06-08T10:32:51.382Z,28.13
2016-06-08T10:33:51.368Z,27.96
2016-06-08T10:34:51.371Z,28.3
2016-06-08T10:35:51.358Z,28.43
2016-06-08T10:36:51.345Z,28.62
2016-06-08T10:37:51.348Z,28.89
2016-06-08T10:38:51.351Z,28.77
2016-06-08T10:39:51.353Z,28.92
2016-06-08T10:40:51.340Z,29.18
2016-06-08T10:41:51.343Z,29.21
2016-06-08T10:42:51.330Z,29.33
2016-06-08T10:43:51.520Z,29.03
2016-06-08T10:44:51.461Z,29.3
2016-06-08T10:45:51.353Z,29.25
2016-06-08T10:46:51.356Z,28.84
2016-06-08T10:47:51.311Z,28.64
2016-06-08T10:48:51.299Z,28.35
2016-06-08T10:49:51.146Z,28.24
2016-06-08T10:50:51.305Z,27.52
2016-06-08T10:51:51.291Z,27.07
2016-06-08T10:52:51.607Z,27.19
2016-06-08T10:53:51.282Z,26.89
2016-06-08T10:54:51.285Z,26.84
2016-06-08T10:55:51.271Z,27.07
2016-06-08T10:56:51.257Z,26.85
2016-06-08T10:57:51.448Z,26.82
2016-06-08T10:58:52.248Z,26.74
2016-06-08T10:59:51.282Z,26.88
2016-06-08T11:00:51.269Z,26.48
2016-06-08T11:01:51.272Z,26.94
2016-06-08T11:02:51.243Z,26.98
2016-06-08T11:03:51.090Z,26.89
2016-06-08T11:04:51.232Z,26.49
2016-06-08T11:05:51.220Z,25.95
2016-06-08T11:06:51.067Z,26.54
2016-06-08T11:07:51.241Z,26.6
2016-06-08T11:08:51.228Z,26.47
2016-06-08T11:09:51.215Z,26.7
2016-06-08T11:10:51.202Z,26.88
2016-06-08T11:11:51.048Z,26.76
2016-06-08T11:12:51.176Z,26.38
2016-06-08T11:13:55.397Z,26.26
2016-06-08T11:14:51.228Z,26.57
2016-06-08T11:15:51.075Z,26.7
2016-06-08T11:16:51.155Z,26.74
2016-06-08T11:17:51.174Z,26.61
2016-06-08T11:18:51.145Z,26.76
2016-06-08T11:19:51.132Z,26.79
2016-06-08T11:20:51.151Z,26.85
2016-06-08T11:21:51.139Z,27.04
2016-06-08T11:22:51.124Z,26.79
2016-06-08T11:23:51.128Z,26.61
2016-06-08T11:24:50.958Z,26.66
2016-06-08T11:25:51.164Z,26.81
2016-06-08T11:26:50.949Z,27.04
2016-06-08T11:27:51.123Z,27.23
2016-06-08T11:28:50.954Z,27.28
2016-06-08T11:29:51.925Z,27.37
2016-06-08T11:30:51.099Z,27.34
2016-06-08T11:31:51.118Z,27.3
2016-06-08T11:32:51.058Z,27.53
2016-06-08T11:33:51.092Z,27.76
2016-06-08T11:34:51.063Z,27.41
2016-06-08T11:35:51.066Z,27.38
2016-06-08T11:36:51.068Z,27.34
2016-06-08T11:37:51.040Z,27.57
2016-06-08T11:38:51.042Z,27.76
2016-06-08T11:39:50.748Z,28.19
2016-06-08T11:40:51.034Z,28.25
2016-06-08T11:41:51.020Z,28.47
2016-06-08T11:42:50.851Z,28.84
2016-06-08T11:43:50.884Z,28.9
2016-06-08T11:44:50.965Z,29.03
2016-06-08T11:45:50.859Z,28.98
2016-06-08T11:46:50.846Z,29.1
2016-06-08T11:47:51.005Z,28.67
2016-06-08T11:48:50.867Z,28.84
2016-06-08T11:49:50.978Z,28.97
2016-06-08T11:50:51.403Z,28.74
2016-06-08T11:51:50.828Z,28.93
2016-06-08T11:52:50.971Z,28.31
2016-06-08T11:53:50.818Z,28.46
2016-06-08T11:54:50.961Z,28.31
2016-06-08T11:55:50.948Z,28.49
2016-06-08T11:56:50.795Z,28.47
2016-06-08T11:57:50.797Z,28.28
2016-06-08T11:58:50.627Z,27.98
2016-06-08T11:59:50.959Z,27.79
2016-06-08T12:00:50.946Z,27.98
2016-06-08T12:01:50.917Z,28.03
2016-06-08T12:02:50.968Z,28.25
2016-06-08T12:03:50.923Z,28.46
2016-06-08T12:04:50.909Z,28.15
2016-06-08T12:05:50.913Z,28.13
2016-06-08T12:06:50.899Z,27.63
2016-06-08T12:07:50.902Z,27.76
2016-06-08T12:08:50.749Z,27.91
2016-06-08T12:09:50.876Z,28.19
2016-06-08T12:10:50.895Z,28.23
2016-06-08T12:11:50.898Z,28.56
2016-06-08T12:12:50.884Z,28.61
2016-06-08T12:13:50.887Z,28.6
2016-06-08T12:14:50.937Z,28.55
2016-06-08T12:15:50.861Z,28.55
2016-06-08T12:16:50.848Z,28.45
2016-06-08T12:17:50.851Z,28.67
2016-06-08T12:18:50.744Z,28.16
2016-06-08T12:19:50.684Z,28.25
2016-06-08T12:20:50.671Z,28.58
2016-06-08T12:21:50.658Z,28.23
2016-06-08T12:22:50.817Z,27.88
2016-06-08T12:23:50.805Z,27.93
2016-06-08T12:24:50.807Z,27.79
2016-06-08T12:25:50.888Z,27.87
2016-06-08T12:26:50.797Z,27.9
2016-06-08T12:27:50.800Z,27.98
2016-06-08T12:28:50.631Z,27.88
2016-06-08T12:29:51.743Z,27.66
2016-06-08T12:30:50.792Z,27.82
2016-06-08T12:31:50.842Z,27.79
2016-06-08T12:32:50.766Z,27.26
2016-06-08T12:33:50.754Z,27.38
2016-06-08T12:34:50.787Z,27.09
2016-06-08T12:35:50.852Z,27.55
2016-06-08T12:36:50.746Z,27.66
2016-06-08T12:37:50.732Z,27.57
2016-06-08T12:38:50.751Z,27.74
2016-06-08T12:39:50.738Z,27.96
2016-06-08T12:40:50.725Z,28.35
2016-06-08T12:41:50.712Z,28.52
2016-06-08T12:42:50.715Z,28.43
2016-06-08T12:43:50.718Z,28.25
2016-06-08T12:44:50.689Z,28.8
2016-06-08T12:45:50.692Z,28.83
2016-06-08T12:46:50.695Z,28.93
2016-06-08T12:47:50.681Z,28.95
2016-06-08T12:48:50.528Z,28.97
2016-06-08T12:49:50.531Z,28.82
2016-06-08T12:50:50.689Z,28.49
2016-06-08T12:51:50.661Z,28.42
2016-06-08T12:52:50.664Z,28.3
2016-06-08T12:53:50.650Z,28.23
2016-06-08T12:54:50.669Z,28.01
2016-06-08T12:55:50.485Z,28.09